Kezdőlap
METAR-TAF:

METAR-TAF

Repülőterek :

Avord, Franciaország

földrajzi szélesség: 47-03-12N, földrajzi hosszúság: 002-37-57E, magasság: 177 m

Jelenlegi meteorológiai megfigyelések

A jelentés 35 perccel ezelõtt készült, 20:00 UTC
Nyugat-délnyugati szél 8 kt
Hőmérséklet 9°C
Páratartalom 71%
Légköri nyomás 1032 hPa
Látótávolság 10 km, vagy több
felhőtlen 1500 m magasságban, és nincs gomolyfelhõ

METAR: LFOA 222000Z AUTO 25008KT CAVOK 09/04 Q1032

Idő: 21:35 (20:35 UTC)

Előrejelzés

A jelentés 36 órával és 35 perccel ezelõtt készült, 08:00 UTC
Az előrejelzés 21-én 09 óra UTC és 22-én 09 óra UTC között érvényes
Déli szél 3 kt
Látótávolság: 2800 m
Párásság
21-én 09 óra UTC és 21-én 10 óra UTC között fokozatosan kialakuló
Nyugat-délnyugati szél 10 kt
Látótávolság 10 km, vagy több
felhőtlen 1500 m magasságban, és nincs gomolyfelhõ

TAF: LFOA 210800Z 2109/2209 19003KT 2800 BR NSC BECMG 2109/2110 24010KT CAVOK

Meteorológiai megfigyelések és előrejelzések több, mint 4000 repülőtéren (METAR és TAF jelentéseket).

A térképen piros és sárga pontok jelzik az elérhető meteorológiai állomásokat.

Mozgassa az egeret a pont fölött, hogy megjelenjen az állomás neve.

Azután kattintson az időjárási megfigyelések és előrejelzések megtekintéséhez.

A térkép megváltoztatása: kattintson a fekete keresztel jelölt zöld gombra ráközelítéshez, a vonallal jelölt zöld gombra távolításhoz, vagy a zöld nyilakra a szomszédos térképek eléréséhez.


METAR-TAF: